Time;durP1;ratioP1;P1;durP2;ratioP2;P2;SDS_P1;SDS_P2;PMS_P1;PMS_P2;Temp;Humidity;BMP_temperature;BMP_pressure;BME280_temperature;BME280_humidity;BME280_pressure;Samples;Min_cycle;Max_cycle;Signal;HPM_P1;HPM_P2
2022/07/27 00:01:06;;;;;;;57.67;35.25;;;;;;;22.23;100.00;94104.63;5017858;28;20033;-88
2022/07/27 00:03:31;;;;;;;65.38;37.10;;;;;;;22.12;100.00;94102.53;5016537;28;20458;-88
2022/07/27 00:05:57;;;;;;;62.72;35.75;;;;;;;22.00;100.00;94099.94;5016573;28;20033;-88
2022/07/27 00:08:22;;;;;;;58.03;34.75;;;;;;;22.05;100.00;94107.69;5016616;28;20105;-88
2022/07/27 00:10:49;;;;;;;58.30;35.33;;;;;;;22.09;100.00;94115.75;5016513;28;20025;-88
2022/07/27 00:13:15;;;;;;;56.05;34.38;;;;;;;22.14;100.00;94110.94;5016475;28;20423;-88
2022/07/27 00:15:40;;;;;;;55.40;34.08;;;;;;;21.89;100.00;94121.06;5016663;28;20109;-87
2022/07/27 00:18:06;;;;;;;56.25;30.10;;;;;;;21.97;100.00;94117.41;5016398;28;20383;-88
2022/07/27 00:20:32;;;;;;;40.90;28.30;;;;;;;21.96;100.00;94118.53;5016424;28;20084;-88
2022/07/27 00:22:57;;;;;;;45.40;26.13;;;;;;;21.89;100.00;94129.06;5000110;28;20040;-87
2022/07/27 00:25:25;;;;;;;35.92;24.17;;;;;;;21.95;100.00;94127.66;5032774;28;20339;-88
2022/07/27 00:27:51;;;;;;;40.47;25.38;;;;;;;21.83;100.00;94135.75;5016254;28;20072;-87
2022/07/27 00:30:16;;;;;;;43.13;23.23;;;;;;;21.82;100.00;94135.00;5016215;28;20092;-87
2022/07/27 00:32:42;;;;;;;42.75;22.10;;;;;;;21.77;100.00;94129.91;5016132;28;20121;-88
2022/07/27 00:35:08;;;;;;;32.33;22.08;;;;;;;21.82;100.00;94137.66;5016051;28;20037;-87
2022/07/27 00:37:34;;;;;;;39.63;21.73;;;;;;;21.84;100.00;94138.09;5015910;28;20428;-87
2022/07/27 00:39:59;;;;;;;37.03;20.88;;;;;;;21.93;100.00;94142.44;4999892;28;20061;-88
2022/07/27 00:42:27;;;;;;;31.00;20.23;;;;;;;21.91;100.00;94155.34;5015355;28;20432;-90
2022/07/27 00:44:54;;;;;;;34.42;22.35;;;;;;;21.84;100.00;94147.97;5027289;28;20030;-89
2022/07/27 00:47:22;;;;;;;30.48;19.90;;;;;;;21.76;100.00;94152.34;5035802;28;20034;-90
2022/07/27 00:49:48;;;;;;;42.72;26.00;;;;;;;21.79;100.00;94156.22;5035804;28;20034;-90
2022/07/27 00:52:14;;;;;;;42.00;24.95;;;;;;;21.72;100.00;94165.59;5035522;28;20029;-90
2022/07/27 00:54:41;;;;;;;38.60;23.25;;;;;;;21.85;100.00;94192.97;5019169;28;20036;-90
2022/07/27 00:57:09;;;;;;;35.80;23.30;;;;;;;21.81;100.00;94209.97;5018999;28;20136;-90
2022/07/27 00:59:35;;;;;;;26.33;14.20;;;;;;;21.59;100.00;94207.50;5019671;28;20033;-90
2022/07/27 01:02:11;;;;;;;16.27;7.35;;;;;;;20.96;100.00;94221.41;5035743;28;20037;-91
2022/07/27 01:04:36;;;;;;;15.35;7.40;;;;;;;20.68;100.00;94212.25;5019125;28;20128;-92
2022/07/27 01:07:03;;;;;;;10.23;4.68;;;;;;;20.47;100.00;94210.47;5035740;28;20132;-92
2022/07/27 01:12:16;;;;;;;9.20;3.10;;;;;;;19.96;100.00;94228.66;5035760;28;20036;-93
2022/07/27 01:14:42;;;;;;;8.63;1.95;;;;;;;19.71;100.00;94229.34;5035271;28;20029;-90
2022/07/27 01:17:07;;;;;;;3.17;2.03;;;;;;;19.50;100.00;94234.69;5035424;28;20033;-92
2022/07/27 01:19:34;;;;;;;2.70;1.95;;;;;;;19.43;100.00;94229.16;5019318;28;20040;-89
2022/07/27 01:22:09;;;;;;;4.57;2.22;;;;;;;19.26;100.00;94233.53;5035754;28;20108;-88
2022/07/27 01:24:35;;;;;;;5.88;1.85;;;;;;;19.19;100.00;94231.38;5018948;28;20116;-92
2022/07/27 01:27:02;;;;;;;3.10;1.58;;;;;;;19.05;100.00;94246.81;5035298;28;20075;-88
2022/07/27 01:29:29;;;;;;;4.40;1.90;;;;;;;19.06;100.00;94246.47;5035353;28;20052;-89
2022/07/27 01:31:59;;;;;;;7.20;1.85;;;;;;;18.89;100.00;94252.66;5018943;28;20037;-89
2022/07/27 01:34:25;;;;;;;4.95;1.90;;;;;;;18.94;100.00;94257.78;5018906;28;20116;-90
2022/07/27 01:36:50;;;;;;;3.47;1.80;;;;;;;18.82;100.00;94278.94;5035207;28;20040;-89
2022/07/27 01:39:17;;;;;;;2.85;1.67;;;;;;;18.96;100.00;94272.59;5018961;28;20342;-89
2022/07/27 01:41:44;;;;;;;4.38;2.10;;;;;;;19.20;100.00;94287.91;5018848;28;20323;-90
2022/07/27 01:44:10;;;;;;;3.10;2.30;;;;;;;19.32;100.00;94290.63;5018478;28;20029;-88
2022/07/27 01:46:35;;;;;;;3.42;1.95;;;;;;;19.35;100.00;94294.53;5019188;28;20415;-90
2022/07/27 01:49:08;;;;;;;5.32;2.28;;;;;;;19.26;100.00;94291.16;5019019;28;20030;-89
2022/07/27 01:51:34;;;;;;;4.40;2.00;;;;;;;19.38;100.00;94307.16;5019987;28;20037;-89
2022/07/27 01:53:59;;;;;;;5.78;2.10;;;;;;;19.20;100.00;94301.19;5038175;28;20025;-89
2022/07/27 01:56:25;;;;;;;3.65;2.25;;;;;;;19.31;100.00;94296.28;5022744;28;20395;-89
2022/07/27 01:58:51;;;;;;;4.43;2.40;;;;;;;19.18;100.00;94301.53;5038802;28;20025;-89
2022/07/27 02:01:17;;;;;;;4.22;2.25;;;;;;;19.39;100.00;94315.91;5038719;28;20044;-89
2022/07/27 02:03:42;;;;;;;2.55;2.33;;;;;;;19.43;100.00;94317.59;5022261;28;20123;-89
2022/07/27 02:06:08;;;;;;;3.63;2.60;;;;;;;19.37;100.00;94318.88;5022298;28;20071;-90
2022/07/27 02:08:34;;;;;;;5.85;2.50;;;;;;;19.63;100.00;94326.63;5021919;28;20120;-90
2022/07/27 02:13:46;;;;;;;5.00;3.00;;;;;;;19.33;100.00;94302.06;5038395;28;20112;-88
2022/07/27 02:16:13;;;;;;;6.07;2.83;;;;;;;19.09;100.00;94300.81;5038606;28;20026;-89
2022/07/27 02:18:39;;;;;;;6.28;3.17;;;;;;;19.11;100.00;94293.28;5022127;28;20033;-89
2022/07/27 02:21:04;;;;;;;4.43;3.00;;;;;;;19.18;100.00;94309.50;5038406;28;20040;-89
2022/07/27 02:23:30;;;;;;;5.45;3.22;;;;;;;19.12;100.00;94312.66;5038062;28;20427;-87
2022/07/27 02:25:56;;;;;;;4.63;3.13;;;;;;;18.81;100.00;94311.13;5021981;28;20033;-89
2022/07/27 02:28:21;;;;;;;4.93;3.58;;;;;;;19.11;100.00;94303.91;5022080;28;20423;-89
2022/07/27 02:30:47;;;;;;;4.50;3.00;;;;;;;19.41;100.00;94303.09;5021883;28;20033;-90
2022/07/27 02:33:12;;;;;;;4.55;3.30;;;;;;;19.54;100.00;94294.06;5018865;28;20109;-89
2022/07/27 02:35:38;;;;;;;5.50;3.30;;;;;;;18.99;100.00;94299.31;5018363;28;20056;-90
2022/07/27 02:38:04;;;;;;;5.68;3.13;;;;;;;19.18;100.00;94304.19;5018013;28;20042;-90
2022/07/27 02:40:29;;;;;;;6.50;3.10;;;;;;;19.24;100.00;94299.47;5019118;28;20034;-89
2022/07/27 02:42:54;;;;;;;5.45;3.25;;;;;;;19.49;100.00;94292.38;5018027;28;20038;-89
2022/07/27 02:45:20;;;;;;;6.35;3.10;;;;;;;19.14;100.00;94291.88;5018231;28;20030;-90
2022/07/27 02:47:45;;;;;;;5.88;2.80;;;;;;;19.32;100.00;94284.56;5018924;28;20040;-90
2022/07/27 02:50:11;;;;;;;8.98;3.28;;;;;;;19.21;100.00;94292.13;5017923;28;20037;-90
2022/07/27 02:52:37;;;;;;;3.33;2.58;;;;;;;19.26;100.00;94289.28;5018814;28;20427;-88
2022/07/27 02:55:03;;;;;;;4.88;3.15;;;;;;;19.08;100.00;94272.69;5017912;28;20067;-88
2022/07/27 02:57:29;;;;;;;6.82;3.13;;;;;;;18.96;100.00;94278.69;5017883;28;20029;-89
2022/07/27 02:59:55;;;;;;;5.55;3.30;;;;;;;18.77;100.00;94287.09;5017889;28;20133;-89
2022/07/27 03:02:20;;;;;;;5.20;3.05;;;;;;;18.70;100.00;94278.84;5001418;28;20037;-89
2022/07/27 03:04:46;;;;;;;4.72;2.80;;;;;;;18.85;100.00;94269.56;5016858;28;20041;-89
2022/07/27 03:07:11;;;;;;;7.47;3.20;;;;;;;18.48;100.00;94270.06;5018939;28;20148;-89
2022/07/27 03:09:37;;;;;;;6.32;2.78;;;;;;;18.41;100.00;94265.25;5018884;28;20038;-88
2022/07/27 03:12:02;;;;;;;3.90;2.67;;;;;;;18.49;100.00;94251.16;5017703;28;20466;-89
2022/07/27 03:14:28;;;;;;;4.53;2.97;;;;;;;18.47;100.00;94255.25;5018730;28;20120;-89
2022/07/27 03:16:53;;;;;;;3.65;2.67;;;;;;;18.39;100.00;94248.09;5018635;28;20040;-89
2022/07/27 03:19:19;;;;;;;5.68;2.67;;;;;;;18.51;100.00;94243.69;5017512;28;20442;-89
2022/07/27 03:21:44;;;;;;;3.33;2.22;;;;;;;18.69;100.00;94235.63;5017562;28;20475;-90
2022/07/27 03:24:10;;;;;;;6.25;2.92;;;;;;;18.39;100.00;94232.19;5017523;28;20034;-90
2022/07/27 03:26:35;;;;;;;4.03;2.25;;;;;;;18.43;100.00;94230.44;5020761;28;20034;-91
2022/07/27 03:29:01;;;;;;;3.58;2.72;;;;;;;18.40;100.00;94217.81;5037210;28;20123;-91
2022/07/27 03:31:26;;;;;;;5.05;2.63;;;;;;;18.42;100.00;94221.72;5034749;28;20037;-90
2022/07/27 03:33:52;;;;;;;5.15;2.60;;;;;;;18.29;100.00;94212.13;5006860;28;20030;-92
2022/07/27 03:36:22;;;;;;;4.63;2.40;;;;;;;18.23;100.00;94212.31;5017386;28;20034;-92
2022/07/27 03:38:47;;;;;;;3.28;2.50;;;;;;;17.92;100.00;94199.31;5030572;28;20128;-90
2022/07/27 03:41:15;;;;;;;7.90;2.70;;;;;;;18.01;100.00;94194.75;5017058;28;20435;-90
2022/07/27 03:43:40;;;;;;;6.00;2.30;;;;;;;17.92;100.00;94188.72;5017795;28;20061;-90
2022/07/27 03:46:06;;;;;;;3.95;2.78;;;;;;;18.08;100.00;94183.69;5016959;28;20033;-91
2022/07/27 03:48:31;;;;;;;4.25;2.67;;;;;;;18.04;100.00;94183.53;5000675;28;20030;-91
2022/07/27 03:50:57;;;;;;;3.95;2.33;;;;;;;18.05;100.00;94179.78;5016798;28;20037;-90
2022/07/27 03:53:22;;;;;;;4.20;2.75;;;;;;;18.19;100.00;94176.91;5016489;28;20044;-90
2022/07/27 03:55:51;;;;;;;3.78;2.63;;;;;;;18.41;100.00;94167.13;5016753;28;20117;-91
2022/07/27 03:58:17;;;;;;;4.60;3.03;;;;;;;18.49;100.00;94160.97;5019449;28;20033;-90
2022/07/27 04:00:43;;;;;;;4.47;2.67;;;;;;;18.45;100.00;94170.69;5036430;28;20493;-90
2022/07/27 04:03:08;;;;;;;3.08;2.45;;;;;;;18.09;100.00;94175.41;5037655;28;20037;-90
2022/07/27 04:05:34;;;;;;;4.78;3.10;;;;;;;17.80;100.00;94184.09;5036494;28;20484;-89
2022/07/27 04:07:59;;;;;;;3.05;2.33;;;;;;;18.00;100.00;94187.13;5036673;28;20106;-89
2022/07/27 04:10:25;;;;;;;3.90;2.60;;;;;;;18.04;100.00;94196.78;5020023;28;20029;-90
2022/07/27 04:12:50;;;;;;;4.85;2.75;;;;;;;17.90;100.00;94188.25;5037615;28;20051;-90
2022/07/27 04:15:17;;;;;;;3.60;2.45;;;;;;;18.08;100.00;94187.09;5036278;28;20320;-90
2022/07/27 04:17:44;;;;;;;3.80;2.42;;;;;;;18.11;100.00;94185.69;5020053;28;20343;-90
2022/07/27 04:20:09;;;;;;;5.93;2.50;;;;;;;17.76;100.00;94180.50;5036046;28;20021;-87
2022/07/27 04:22:35;;;;;;;2.70;1.80;;;;;;;18.33;100.00;94171.38;5036101;28;20124;-88
2022/07/27 04:25:00;;;;;;;2.75;2.20;;;;;;;18.06;100.00;94160.13;5037658;28;20112;-90
2022/07/27 04:27:26;;;;;;;3.70;2.50;;;;;;;17.99;100.00;94156.41;5036167;28;20032;-89
2022/07/27 04:29:52;;;;;;;2.53;1.75;;;;;;;18.56;100.00;94141.88;5019799;28;20025;-88
2022/07/27 04:32:17;;;;;;;4.25;2.00;;;;;;;18.28;100.00;94137.06;5035904;28;20040;-88
2022/07/27 04:34:42;;;;;;;5.18;2.50;;;;;;;18.43;100.00;94133.09;5036023;28;20053;-89
2022/07/27 04:37:08;;;;;;;4.68;2.60;;;;;;;18.32;100.00;94123.97;5036488;28;20025;-89
2022/07/27 04:39:33;;;;;;;3.25;2.40;;;;;;;18.73;100.00;94122.41;5035967;28;20431;-89
2022/07/27 04:41:59;;;;;;;3.80;2.30;;;;;;;18.55;100.00;94121.78;5019644;28;20017;-87
2022/07/27 04:44:24;;;;;;;2.80;2.22;;;;;;;18.48;100.00;94122.28;5019317;28;20025;-88
2022/07/27 04:46:50;;;;;;;6.53;2.55;;;;;;;18.55;100.00;94126.31;5035805;28;20021;-89
2022/07/27 04:49:15;;;;;;;4.03;2.13;;;;;;;18.72;100.00;94118.22;5019474;28;20045;-87
2022/07/27 04:51:43;;;;;;;3.80;2.13;;;;;;;19.06;100.00;94121.69;5019567;28;20433;-88
2022/07/27 04:54:08;;;;;;;6.80;2.40;;;;;;;19.32;100.00;94120.66;5019466;28;20337;-89
2022/07/27 04:56:33;;;;;;;2.78;2.03;;;;;;;19.48;100.00;94112.84;5019657;28;20025;-89
2022/07/27 04:58:59;;;;;;;2.80;1.90;;;;;;;19.73;100.00;94114.72;5019600;28;20025;-89
2022/07/27 05:01:24;;;;;;;3.20;1.95;;;;;;;19.26;100.00;94121.97;5035684;28;20031;-88
2022/07/27 05:03:52;;;;;;;3.17;2.00;;;;;;;19.73;100.00;94125.38;5019514;28;20041;-89
2022/07/27 05:06:18;;;;;;;2.50;1.67;;;;;;;19.50;100.00;94115.13;5035534;28;20104;-87
2022/07/27 05:08:44;;;;;;;4.15;2.22;;;;;;;19.40;100.00;94111.03;5019415;28;20128;-90
2022/07/27 05:11:09;;;;;;;2.20;1.75;;;;;;;19.55;100.00;94096.34;5035440;28;20108;-89
2022/07/27 05:13:39;;;;;;;4.07;1.80;;;;;;;19.85;100.00;94090.81;5035614;28;20316;-90
2022/07/27 05:16:08;;;;;;;2.25;1.73;;;;;;;20.19;100.00;94085.38;5035495;28;20033;-89
2022/07/27 05:18:33;;;;;;;4.80;1.92;;;;;;;20.17;100.00;94088.38;5019526;28;20028;-89
2022/07/27 05:20:59;;;;;;;2.83;2.05;;;;;;;20.20;100.00;94090.34;5019315;28;20025;-90
2022/07/27 05:23:26;;;;;;;1.75;1.42;;;;;;;20.41;100.00;94089.44;5035429;28;20487;-89
2022/07/27 05:25:52;;;;;;;4.35;2.17;;;;;;;20.38;100.00;94087.47;5035635;28;20079;-88
2022/07/27 05:28:17;;;;;;;2.83;1.63;;;;;;;20.54;100.00;94089.41;5020181;28;20060;-88
2022/07/27 05:30:45;;;;;;;3.05;1.70;;;;;;;20.63;100.00;94092.69;5039389;28;20091;-87
2022/07/27 05:33:10;;;;;;;3.97;1.77;;;;;;;20.79;100.00;94090.09;5023034;28;20101;-88
2022/07/27 05:35:36;;;;;;;3.88;1.90;;;;;;;21.04;100.00;94104.09;5022580;28;20033;-88
2022/07/27 05:38:04;;;;;;;2.20;1.90;;;;;;;21.06;100.00;94095.78;5040236;28;20074;-88
2022/07/27 05:40:30;;;;;;;2.28;1.80;;;;;;;21.10;100.00;94095.88;5022572;28;20343;-88
2022/07/27 05:42:56;;;;;;;6.53;2.38;;;;;;;20.83;100.00;94096.31;5039254;28;20025;-88
2022/07/27 05:45:22;;;;;;;4.53;1.98;;;;;;;20.73;100.00;94092.22;5022784;28;20494;-88
2022/07/27 05:47:47;;;;;;;2.38;1.67;;;;;;;20.86;100.00;94089.53;5039000;28;20025;-88
2022/07/27 05:50:15;;;;;;;7.60;2.35;;;;;;;20.39;100.00;94080.22;5039155;28;20116;-87
2022/07/27 05:52:42;;;;;;;1.83;1.60;;;;;;;20.13;100.00;94090.16;5039176;28;20033;-88
2022/07/27 05:55:11;;;;;;;4.05;2.30;;;;;;;19.82;100.00;94088.81;5038932;28;20327;-90
2022/07/27 05:57:40;;;;;;;3.78;1.88;;;;;;;20.27;100.00;94089.03;5038552;28;20457;-88
2022/07/27 06:00:16;;;;;;;3.47;1.95;;;;;;;20.56;100.00;94098.59;5015126;28;20124;-87
2022/07/27 06:02:59;;;;;;;3.30;1.80;;;;;;;20.92;100.00;94098.06;5031886;28;20029;-89
2022/07/27 06:05:30;;;;;;;2.70;1.80;;;;;;;21.19;100.00;94109.78;5019069;28;20026;-89
2022/07/27 06:07:58;;;;;;;4.78;2.13;;;;;;;21.37;100.00;94107.59;5027409;28;20093;-89
2022/07/27 06:10:30;;;;;;;3.17;1.70;;;;;;;22.12;100.00;94115.06;5022232;28;20026;-89
2022/07/27 06:13:06;;;;;;;;;;;;;;;;;;;;;
2022/07/27 06:15:35;;;;;;;3.00;1.98;;;;;;;22.74;100.00;94112.59;5038264;28;20442;-88
2022/07/27 06:18:05;;;;;;;3.63;1.70;;;;;;;22.73;100.00;94120.94;5027855;28;20033;-88
2022/07/27 06:20:33;;;;;;;3.67;2.30;;;;;;;22.71;100.00;94126.66;5018715;28;20026;-89
2022/07/27 06:23:02;;;;;;;2.75;2.00;;;;;;;22.87;100.00;94126.56;5018398;28;20435;-88
2022/07/27 06:25:41;;;;;;;;;;;;;;;;;;;;;
2022/07/27 06:28:18;;;;;;;;;;;;;;;;;;;;;
2022/07/27 06:30:47;;;;;;;3.65;2.40;;;;;;;22.65;100.00;94135.28;5018256;28;20025;-88
2022/07/27 06:33:27;;;;;;;;;;;;;;;;;;;;;
2022/07/27 06:36:07;;;;;;;;;;;;;;;;;;;;;
2022/07/27 06:38:33;;;;;;;5.93;1.90;;;;;;;22.51;100.00;94149.88;5017838;28;20044;-88
2022/07/27 06:41:00;;;;;;;3.88;2.38;;;;;;;22.44;100.00;94147.81;5018314;28;20108;-88
2022/07/27 06:43:27;;;;;;;3.05;2.30;;;;;;;22.32;100.00;94147.91;5018813;28;20030;-88
2022/07/27 06:45:53;;;;;;;5.68;2.70;;;;;;;22.82;100.00;94134.88;5017881;28;20029;-86
2022/07/27 06:48:20;;;;;;;7.40;2.28;;;;;;;23.05;100.00;94136.06;5001418;28;20132;-84
2022/07/27 06:50:46;;;;;;;4.18;2.42;;;;;;;22.87;100.00;94129.22;5017752;28;20324;-83
2022/07/27 06:53:11;;;;;;;5.38;2.55;;;;;;;22.55;100.00;94137.38;5017571;28;20022;-84
2022/07/27 06:55:37;;;;;;;5.55;3.03;;;;;;;22.82;100.00;94150.88;5018803;28;20030;-84
2022/07/27 06:58:02;;;;;;;4.05;3.00;;;;;;;22.85;100.00;94155.53;5001465;28;20036;-83
2022/07/27 07:00:28;;;;;;;4.25;3.53;;;;;;;22.38;100.00;94151.09;5017740;28;20036;-85
2022/07/27 07:02:58;;;;;;;7.07;2.95;;;;;;;22.20;100.00;94158.69;5017459;28;20028;-85
2022/07/27 07:05:23;;;;;;;5.35;3.22;;;;;;;22.74;100.00;94147.31;5001115;28;20033;-83
2022/07/27 07:07:49;;;;;;;8.60;3.90;;;;;;;22.28;100.00;94147.81;5017408;28;20347;-85
2022/07/27 07:10:15;;;;;;;8.05;3.70;;;;;;;21.78;100.00;94152.78;5017439;28;20022;-83
2022/07/27 07:12:40;;;;;;;5.32;3.00;;;;;;;22.35;100.00;94157.88;5017090;28;20042;-84
2022/07/27 07:15:07;;;;;;;5.15;2.80;;;;;;;22.63;100.00;94156.22;5017363;28;20036;-84
2022/07/27 07:17:32;;;;;;;6.20;4.22;;;;;;;23.00;100.00;94159.25;5001319;28;20026;-83
2022/07/27 07:19:58;;;;;;;8.32;4.03;;;;;;;23.25;100.00;94158.97;5017205;28;20071;-84
2022/07/27 07:22:24;;;;;;;9.90;4.05;;;;;;;22.87;100.00;94163.97;5017212;28;20072;-84
2022/07/27 07:24:50;;;;;;;6.65;4.10;;;;;;;23.32;100.00;94165.59;5018150;28;20454;-85
2022/07/27 07:27:18;;;;;;;8.82;3.78;;;;;;;23.58;100.00;94165.69;5018288;28;20025;-85
2022/07/27 07:29:43;;;;;;;7.38;3.38;;;;;;;24.00;100.00;94168.66;5017081;28;20026;-84
2022/07/27 07:32:09;;;;;;;5.03;3.30;;;;;;;24.32;100.00;94162.28;5016856;28;20021;-84
2022/07/27 07:34:35;;;;;;;6.25;3.42;;;;;;;24.46;100.00;94175.09;5016842;28;20032;-84
2022/07/27 07:37:00;;;;;;;4.35;3.53;;;;;;;23.67;100.00;94184.19;5017219;28;20120;-84
2022/07/27 07:39:26;;;;;;;11.50;3.72;;;;;;;23.24;100.00;94178.81;5016803;28;20037;-83
2022/07/27 07:41:52;;;;;;;7.97;4.88;;;;;;;22.54;100.00;94175.88;5016762;28;20026;-82
2022/07/27 07:44:18;;;;;;;5.72;3.60;;;;;;;22.77;100.00;94183.22;5016663;28;20100;-83
2022/07/27 07:46:43;;;;;;;5.80;3.75;;;;;;;22.73;100.00;94191.16;5017921;28;20032;-83
2022/07/27 07:49:09;;;;;;;8.40;5.43;;;;;;;23.14;100.00;94193.50;5017800;28;20026;-84
2022/07/27 07:51:35;;;;;;;8.48;5.00;;;;;;;22.83;100.00;94191.75;5016302;28;20028;-83
2022/07/27 07:54:00;;;;;;;4.85;3.70;;;;;;;23.34;100.00;94184.72;5017608;28;20347;-85
2022/07/27 07:56:26;;;;;;;7.30;3.70;;;;;;;23.08;100.00;94180.75;5016587;28;20029;-83
2022/07/27 07:58:51;;;;;;;5.28;4.22;;;;;;;23.09;100.00;94183.09;5016397;28;20113;-84
2022/07/27 08:01:17;;;;;;;7.30;3.92;;;;;;;23.32;100.00;94177.06;5016540;28;20025;-85
2022/07/27 08:03:42;;;;;;;8.52;4.40;;;;;;;23.53;100.00;94184.72;5017584;28;20022;-86
2022/07/27 08:06:08;;;;;;;6.05;3.88;;;;;;;23.98;100.00;94192.34;5017581;28;20446;-84
2022/07/27 08:08:33;;;;;;;9.00;4.35;;;;;;;23.94;100.00;94186.13;5017514;28;20025;-85
2022/07/27 08:10:58;;;;;;;5.45;4.00;;;;;;;24.21;100.00;94191.56;5017386;28;20030;-82
2022/07/27 08:13:24;;;;;;;6.85;4.55;;;;;;;24.60;100.00;94187.91;5017272;28;20025;-83
2022/07/27 08:15:51;;;;;;;5.28;3.55;;;;;;;24.01;100.00;94197.72;5016272;28;20065;-84
2022/07/27 08:18:17;;;;;;;5.22;3.20;;;;;;;23.46;100.00;94184.56;5016152;28;20026;-84
2022/07/27 08:20:43;;;;;;;3.85;2.67;;;;;;;23.59;100.00;94182.50;5016156;28;20021;-85
2022/07/27 08:23:11;;;;;;;6.65;3.40;;;;;;;23.64;100.00;94184.09;5015937;28;20021;-84
2022/07/27 08:25:36;;;;;;;4.30;2.70;;;;;;;23.99;100.00;94200.00;5016149;28;20387;-85
2022/07/27 08:28:02;;;;;;;4.45;2.78;;;;;;;23.93;100.00;94195.28;4999942;28;20029;-85
2022/07/27 08:30:28;;;;;;;4.60;2.78;;;;;;;24.39;100.00;94194.50;4999872;28;20065;-83
2022/07/27 08:32:58;;;;;;;3.38;2.20;;;;;;;24.46;100.00;94204.56;5015765;28;20032;-84
2022/07/27 08:35:24;;;;;;;5.38;2.90;;;;;;;24.47;100.00;94190.03;4999753;28;20028;-84
2022/07/27 08:37:50;;;;;;;4.60;2.47;;;;;;;25.04;100.00;94190.06;5015802;28;20040;-84
2022/07/27 08:40:16;;;;;;;4.15;2.55;;;;;;;24.72;100.00;94187.69;4999560;28;20030;-83
2022/07/27 08:42:45;;;;;;;4.18;2.58;;;;;;;24.33;100.00;94186.00;5015768;28;20403;-84
2022/07/27 08:45:13;;;;;;;3.65;2.30;;;;;;;24.98;100.00;94189.59;5015805;28;20029;-83
2022/07/27 08:47:40;;;;;;;4.10;2.22;;;;;;;25.18;100.00;94196.69;4999653;28;20025;-83
2022/07/27 08:50:24;;;;;;;4.15;2.72;;;;;;;24.86;100.00;94195.19;5015797;28;20026;-83
2022/07/27 08:52:49;;;;;;;3.53;2.15;;;;;;;24.84;99.10;94198.22;5016807;28;20415;-83
2022/07/27 08:55:15;;;;;;;2.50;2.10;;;;;;;24.71;100.00;94194.19;5016073;28;20120;-85
2022/07/27 08:57:40;;;;;;;3.50;2.13;;;;;;;24.75;100.00;94194.25;5015903;28;20124;-84
2022/07/27 09:00:07;;;;;;;3.30;2.40;;;;;;;25.09;97.31;94189.72;5015644;28;20036;-83
2022/07/27 09:02:36;;;;;;;4.90;2.83;;;;;;;25.30;100.00;94187.66;5015867;28;20022;-84
2022/07/27 09:05:03;;;;;;;6.50;3.05;;;;;;;25.52;100.00;94188.69;5019621;28;20028;-83
2022/07/27 09:07:30;;;;;;;9.00;3.80;;;;;;;25.72;100.00;94194.63;5020854;28;20427;-84
2022/07/27 09:09:55;;;;;;;5.95;3.97;;;;;;;25.60;100.00;94192.22;5021113;28;20025;-84
2022/07/27 09:12:26;;;;;;;8.82;4.10;;;;;;;25.64;100.00;94193.78;5019425;28;20022;-84
2022/07/27 09:15:11;;;;;;;5.20;3.75;;;;;;;25.50;100.00;94193.66;5019707;28;20032;-84
2022/07/27 09:17:38;;;;;;;5.50;4.05;;;;;;;25.77;100.00;94194.28;5019542;28;20025;-84
2022/07/27 09:20:07;;;;;;;6.00;4.00;;;;;;;25.21;100.00;94194.06;5003291;28;20026;-84
2022/07/27 09:22:57;;;;;;;10.52;4.20;;;;;;;25.76;100.00;94197.34;5003227;28;20021;-84
2022/07/27 09:25:24;;;;;;;5.63;4.18;;;;;;;25.47;100.00;94203.16;5020542;28;20037;-85
2022/07/27 09:27:55;;;;;;;7.07;3.88;;;;;;;25.82;99.63;94203.91;5037663;28;20339;-84
2022/07/27 09:30:21;;;;;;;5.07;3.33;;;;;;;25.97;94.05;94199.47;5039022;28;20022;-85
2022/07/27 09:32:57;;;;;;;6.82;3.20;;;;;;;26.34;91.90;94203.22;5022533;28;20179;-83
2022/07/27 09:35:26;;;;;;;6.85;2.97;;;;;;;26.29;94.29;94206.25;5038871;28;20083;-83
2022/07/27 09:37:51;;;;;;;6.97;3.30;;;;;;;25.84;94.00;94207.00;5022453;28;20029;-85
2022/07/27 09:40:20;;;;;;;4.40;3.10;;;;;;;25.95;94.42;94201.72;5038913;28;20036;-84
2022/07/27 09:42:46;;;;;;;5.03;2.50;;;;;;;26.71;91.80;94201.53;5022450;28;20112;-85
2022/07/27 09:45:34;;;;;;;4.25;3.20;;;;;;;26.74;88.81;94201.53;5022458;28;20350;-84
2022/07/27 09:48:12;;;;;;;3.75;2.65;;;;;;;26.98;82.00;94201.34;5022359;28;20029;-84
2022/07/27 09:50:40;;;;;;;6.15;2.90;;;;;;;26.75;82.16;94199.63;5038731;28;20025;-85
2022/07/27 09:53:15;;;;;;;4.13;2.42;;;;;;;26.84;78.02;94193.91;5022048;28;20025;-84
2022/07/27 09:55:41;;;;;;;5.95;2.60;;;;;;;26.67;80.65;94196.16;5038760;28;20025;-84
2022/07/27 09:58:11;;;;;;;4.85;2.35;;;;;;;27.04;76.64;94199.81;5038479;28;20025;-84
2022/07/27 10:00:37;;;;;;;4.68;3.00;;;;;;;26.52;77.65;94200.63;5039012;28;20033;-84
2022/07/27 10:03:03;;;;;;;3.55;2.50;;;;;;;26.25;78.35;94201.63;5038299;28;20037;-83
2022/07/27 10:05:35;;;;;;;3.30;2.50;;;;;;;26.32;73.94;94198.22;5021804;28;20350;-85
2022/07/27 10:08:04;;;;;;;2.53;1.77;;;;;;;26.46;72.39;94196.78;5018799;28;20014;-85
2022/07/27 10:10:30;;;;;;;3.97;2.15;;;;;;;26.02;75.34;94201.81;5018460;28;20026;-83
2022/07/27 10:12:55;;;;;;;2.15;1.80;;;;;;;26.67;71.90;94196.16;5021062;28;20075;-83
2022/07/27 10:15:23;;;;;;;4.70;2.08;;;;;;;27.10;72.62;94195.59;5037832;28;20025;-84
2022/07/27 10:17:56;;;;;;;2.38;2.17;;;;;;;27.03;71.57;94196.34;5038201;28;20028;-85
2022/07/27 10:20:21;;;;;;;4.32;2.30;;;;;;;27.28;71.89;94195.66;5021951;28;20499;-85
2022/07/27 10:22:52;;;;;;;3.95;2.17;;;;;;;27.29;69.80;94202.59;5037997;28;20029;-85
2022/07/27 10:25:18;;;;;;;3.65;2.47;;;;;;;27.15;70.14;94197.94;5038015;28;20030;-83
2022/07/27 10:27:51;;;;;;;3.95;2.45;;;;;;;26.82;74.03;94199.66;5037881;28;20049;-84
2022/07/27 10:30:17;;;;;;;3.67;2.80;;;;;;;27.06;75.96;94200.97;5021834;28;20354;-85
2022/07/27 10:32:43;;;;;;;3.80;2.22;;;;;;;27.21;74.57;94199.09;5037788;28;20032;-84
2022/07/27 10:35:35;;;;;;;5.35;2.70;;;;;;;27.31;75.89;94202.97;5021514;28;20034;-85
2022/07/27 10:38:11;;;;;;;4.18;2.80;;;;;;;27.30;76.67;94192.63;5021226;28;20351;-84
2022/07/27 10:40:38;;;;;;;4.97;2.50;;;;;;;27.63;76.28;94186.19;5037788;28;20055;-85
2022/07/27 10:43:18;;;;;;;4.07;2.80;;;;;;;27.37;77.71;94182.66;5037559;28;20030;-84
2022/07/27 10:45:45;;;;;;;4.20;2.88;;;;;;;27.85;76.50;94186.22;5037647;28;20131;-86
2022/07/27 10:48:38;;;;;;;5.75;3.17;;;;;;;27.40;76.54;94186.47;5037606;28;20108;-88
2022/07/27 10:51:07;;;;;;;6.07;3.65;;;;;;;26.64;80.92;94186.91;5017286;28;20068;-89
2022/07/27 10:53:38;;;;;;;5.05;3.10;;;;;;;26.90;82.07;94182.47;5017437;28;20112;-89
2022/07/27 10:56:06;;;;;;;4.82;3.10;;;;;;;27.33;79.86;94176.50;5001860;28;20037;-88
2022/07/27 10:58:31;;;;;;;7.43;2.60;;;;;;;27.40;77.26;94186.47;5017981;28;20025;-89
2022/07/27 11:00:58;;;;;;;4.82;2.85;;;;;;;27.22;76.09;94181.06;5019536;28;20033;-89
2022/07/27 11:03:35;;;;;;;4.50;2.70;;;;;;;26.97;75.49;94179.03;5001415;28;20076;-90
2022/07/27 11:06:21;;;;;;;4.88;2.42;;;;;;;27.62;72.98;94181.97;5002149;28;20440;-89
2022/07/27 11:08:50;;;;;;;3.13;2.33;;;;;;;27.82;72.21;94175.44;5017707;28;20026;-90
2022/07/27 11:11:21;;;;;;;4.05;2.17;;;;;;;27.80;68.44;94181.97;5001407;28;20021;-90
2022/07/27 11:13:53;;;;;;;4.47;2.30;;;;;;;27.56;70.46;94170.03;5017156;28;20092;-90
2022/07/27 11:16:19;;;;;;;2.85;2.00;;;;;;;28.07;69.74;94167.38;5017464;28;20025;-87
2022/07/27 11:19:02;;;;;;;2.13;1.80;;;;;;;28.04;65.07;94168.13;5017245;28;20079;-85
2022/07/27 11:21:29;;;;;;;4.57;2.55;;;;;;;26.95;65.47;94167.91;5017274;28;20526;-83
2022/07/27 11:24:02;;;;;;;4.13;2.45;;;;;;;27.42;68.82;94164.59;5016936;28;20017;-84
2022/07/27 11:26:29;;;;;;;3.47;2.50;;;;;;;27.85;66.25;94159.28;5016498;28;20030;-89
2022/07/27 11:28:55;;;;;;;3.40;2.38;;;;;;;28.25;66.61;94156.63;5001255;28;20083;-89
2022/07/27 11:31:29;;;;;;;4.43;2.65;;;;;;;28.40;67.47;94153.91;5017180;28;20025;-89
2022/07/27 11:33:59;;;;;;;3.95;2.40;;;;;;;28.53;69.17;94154.28;5000440;28;20026;-89
2022/07/27 11:36:41;;;;;;;6.32;2.40;;;;;;;28.49;66.86;94149.66;5000902;28;20427;-89
2022/07/27 11:39:13;;;;;;;3.83;2.35;;;;;;;28.20;70.15;94144.34;5017522;28;20080;-88